createdAt,value
2022-08-03T00:01:30.916Z,3.28
2022-08-03T00:03:59.983Z,3.55
2022-08-03T00:06:27.600Z,3.25
2022-08-03T00:08:55.325Z,3.15
2022-08-03T00:11:23.076Z,3.17
2022-08-03T00:13:50.773Z,3.00
2022-08-03T00:16:18.441Z,3.58
2022-08-03T00:18:47.026Z,3.42
2022-08-03T00:21:15.955Z,3.40
2022-08-03T00:23:52.072Z,3.88
2022-08-03T00:26:20.601Z,3.70
2022-08-03T00:28:48.191Z,3.63
2022-08-03T00:31:15.892Z,3.60
2022-08-03T00:33:59.221Z,3.80
2022-08-03T00:36:29.388Z,3.65
2022-08-03T00:38:57.401Z,3.80
2022-08-03T00:41:25.213Z,3.30
2022-08-03T00:43:52.881Z,3.20
2022-08-03T00:46:22.294Z,3.15
2022-08-03T00:48:50.110Z,3.17
2022-08-03T00:51:17.818Z,3.47
2022-08-03T00:53:47.007Z,3.63
2022-08-03T00:56:15.198Z,3.40
2022-08-03T00:58:42.829Z,3.28
2022-08-03T01:01:10.492Z,3.70
2022-08-03T01:03:38.172Z,3.53
2022-08-03T01:06:09.256Z,3.55
2022-08-03T01:08:41.922Z,3.53
2022-08-03T01:11:15.901Z,3.92
2022-08-03T01:14:01.715Z,3.90
2022-08-03T01:16:40.088Z,3.72
2022-08-03T01:19:14.295Z,3.67
2022-08-03T01:21:44.749Z,3.47
2022-08-03T01:24:23.832Z,3.83
2022-08-03T01:27:00.694Z,3.60
2022-08-03T01:29:49.849Z,3.60
2022-08-03T01:33:03.142Z,3.63
2022-08-03T01:35:10.204Z,3.33
2022-08-03T01:37:40.727Z,3.83
2022-08-03T01:40:10.286Z,4.07
2022-08-03T01:42:38.193Z,3.38
2022-08-03T01:45:08.556Z,3.83
2022-08-03T01:47:36.759Z,3.40
2022-08-03T01:50:05.533Z,3.45
2022-08-03T01:52:33.865Z,3.22
2022-08-03T01:55:02.385Z,3.75
2022-08-03T01:57:30.340Z,3.80
2022-08-03T01:59:58.332Z,3.58
2022-08-03T02:02:34.037Z,4.00
2022-08-03T02:05:02.571Z,3.53
2022-08-03T02:07:30.441Z,3.60
2022-08-03T02:09:59.785Z,3.53
2022-08-03T02:12:28.866Z,3.75
2022-08-03T02:14:57.528Z,3.65
2022-08-03T02:17:39.938Z,4.00
2022-08-03T02:20:09.202Z,3.60
2022-08-03T02:22:37.220Z,3.70
2022-08-03T02:25:05.106Z,4.57
2022-08-03T02:27:35.324Z,3.55
2022-08-03T02:30:04.962Z,4.22
2022-08-03T02:32:35.942Z,3.88
2022-08-03T02:35:04.052Z,3.88
2022-08-03T02:37:33.388Z,3.33
2022-08-03T02:40:03.105Z,3.63
2022-08-03T02:42:33.017Z,3.88
2022-08-03T02:45:03.116Z,3.85
2022-08-03T02:47:53.864Z,3.85
2022-08-03T02:50:20.198Z,3.83
2022-08-03T02:52:49.007Z,3.83
2022-08-03T02:55:17.355Z,3.88
2022-08-03T02:57:45.937Z,3.92
2022-08-03T03:00:14.007Z,3.85
2022-08-03T03:02:55.736Z,4.25
2022-08-03T03:05:56.453Z,4.07
2022-08-03T03:08:18.989Z,3.72
2022-08-03T03:10:49.054Z,4.05
2022-08-03T03:13:22.173Z,3.70
2022-08-03T03:15:50.748Z,3.53
2022-08-03T03:18:22.295Z,3.92
2022-08-03T03:20:52.650Z,3.95
2022-08-03T03:23:21.195Z,3.78
2022-08-03T03:25:49.534Z,4.20
2022-08-03T03:28:17.518Z,3.95
2022-08-03T03:30:45.329Z,3.92
2022-08-03T03:33:20.680Z,3.80
2022-08-03T03:35:48.889Z,4.00
2022-08-03T03:38:18.285Z,4.32
2022-08-03T03:40:46.217Z,4.22
2022-08-03T03:43:13.991Z,4.20
2022-08-03T03:45:42.201Z,4.07
2022-08-03T03:48:10.141Z,4.05
2022-08-03T03:50:40.780Z,3.92
2022-08-03T03:53:09.860Z,4.35
2022-08-03T03:55:59.238Z,4.00
2022-08-03T03:58:26.543Z,3.83
2022-08-03T04:00:54.434Z,4.13
2022-08-03T04:03:22.114Z,3.97
2022-08-03T04:06:07.224Z,3.92
2022-08-03T04:08:52.382Z,5.45
2022-08-03T04:11:30.086Z,4.22
2022-08-03T04:14:01.780Z,4.70
2022-08-03T04:16:31.777Z,4.53
2022-08-03T04:19:01.963Z,4.45
2022-08-03T04:21:30.061Z,4.40
2022-08-03T04:24:05.388Z,4.30
2022-08-03T04:26:36.336Z,4.55
2022-08-03T04:29:05.309Z,4.70
2022-08-03T04:31:33.445Z,4.15
2022-08-03T04:34:01.662Z,4.90
2022-08-03T04:36:31.015Z,4.30
2022-08-03T04:39:02.111Z,4.55
2022-08-03T04:41:31.434Z,4.72
2022-08-03T04:44:02.004Z,4.45
2022-08-03T04:46:33.981Z,4.20
2022-08-03T04:49:02.075Z,4.20
2022-08-03T04:51:30.514Z,4.40
2022-08-03T04:53:58.167Z,4.90
2022-08-03T04:56:25.849Z,4.50
2022-08-03T04:58:53.777Z,4.70
2022-08-03T05:01:23.613Z,4.60
2022-08-03T05:03:51.558Z,4.50
2022-08-03T05:06:19.182Z,4.85
2022-08-03T05:08:49.191Z,4.05
2022-08-03T05:11:18.845Z,4.47
2022-08-03T05:13:46.943Z,4.55
2022-08-03T05:16:15.073Z,4.53
2022-08-03T05:18:44.305Z,4.28
2022-08-03T05:21:13.953Z,4.30
2022-08-03T05:23:41.598Z,4.18
2022-08-03T05:26:09.141Z,4.88
2022-08-03T05:28:36.852Z,4.07
2022-08-03T05:31:04.575Z,4.22
2022-08-03T05:33:32.154Z,4.05
2022-08-03T05:36:04.304Z,4.25
2022-08-03T05:38:34.146Z,4.20
2022-08-03T05:41:22.973Z,4.55
2022-08-03T05:43:50.805Z,4.40
2022-08-03T05:46:18.392Z,4.40
2022-08-03T05:48:46.028Z,3.95
2022-08-03T05:51:15.410Z,4.00
2022-08-03T05:53:43.188Z,4.22
2022-08-03T05:56:14.295Z,4.30
2022-08-03T05:58:43.515Z,4.20
2022-08-03T06:01:11.253Z,4.20
2022-08-03T06:03:38.904Z,4.13
2022-08-03T06:06:06.587Z,3.92
2022-08-03T06:08:36.034Z,4.20
2022-08-03T06:11:03.786Z,4.55
2022-08-03T06:13:32.344Z,3.85
2022-08-03T06:16:00.229Z,4.43
2022-08-03T06:18:27.829Z,4.35
2022-08-03T06:20:55.612Z,4.38
2022-08-03T06:23:37.859Z,4.38
2022-08-03T06:26:13.524Z,3.90
2022-08-03T06:28:52.180Z,4.53
2022-08-03T06:31:22.755Z,4.07
2022-08-03T06:34:32.099Z,4.25
2022-08-03T06:36:38.514Z,3.88
2022-08-03T06:39:06.295Z,4.28
2022-08-03T06:41:37.291Z,4.05
2022-08-03T06:44:06.170Z,4.50
2022-08-03T06:46:34.025Z,5.18
2022-08-03T06:49:01.708Z,6.03
2022-08-03T06:52:05.451Z,5.40
2022-08-03T06:54:19.797Z,4.25
2022-08-03T06:56:48.840Z,4.75
2022-08-03T07:00:09.403Z,4.07
2022-08-03T07:02:04.109Z,4.10
2022-08-03T07:04:31.644Z,4.00
2022-08-03T07:06:59.231Z,3.92
2022-08-03T07:09:27.177Z,3.53
2022-08-03T07:11:57.116Z,3.65
2022-08-03T07:14:24.718Z,4.45
2022-08-03T07:16:52.560Z,3.90
2022-08-03T07:19:20.195Z,3.78
2022-08-03T07:21:47.846Z,3.47
2022-08-03T07:24:15.753Z,3.75
2022-08-03T07:26:43.357Z,4.47
2022-08-03T07:29:15.355Z,3.40
2022-08-03T07:31:43.171Z,3.25
2022-08-03T07:34:10.769Z,3.10
2022-08-03T07:36:39.992Z,3.00
2022-08-03T07:39:15.347Z,3.13
2022-08-03T07:41:45.754Z,2.78
2022-08-03T07:44:14.921Z,2.80
2022-08-03T07:46:42.597Z,2.92
2022-08-03T07:49:10.292Z,2.70
2022-08-03T07:51:38.536Z,2.90
2022-08-03T07:54:06.511Z,3.03
2022-08-03T07:56:35.384Z,2.97
2022-08-03T07:59:03.259Z,2.63
2022-08-03T08:01:36.820Z,2.60
2022-08-03T08:04:04.577Z,2.40
2022-08-03T08:06:32.821Z,2.50
2022-08-03T08:09:02.370Z,2.63
2022-08-03T08:11:31.084Z,2.20
2022-08-03T08:14:02.499Z,2.00
2022-08-03T08:16:30.138Z,2.10
2022-08-03T08:18:59.157Z,1.90
2022-08-03T08:21:27.035Z,1.90
2022-08-03T08:24:18.256Z,1.80
2022-08-03T08:26:47.531Z,2.20
2022-08-03T08:29:15.170Z,2.05
2022-08-03T08:31:42.831Z,1.90
2022-08-03T08:34:11.877Z,2.05
2022-08-03T08:36:39.507Z,1.92
2022-08-03T08:39:07.226Z,2.25
2022-08-03T08:41:34.934Z,2.35
2022-08-03T08:44:02.689Z,2.20
2022-08-03T08:46:30.947Z,1.90
2022-08-03T08:48:59.333Z,1.73
2022-08-03T08:51:54.866Z,2.03
2022-08-03T08:54:24.129Z,1.75
2022-08-03T08:56:52.589Z,1.80
2022-08-03T08:59:20.864Z,2.20
2022-08-03T09:01:48.529Z,2.15
2022-08-03T09:04:16.254Z,2.10
2022-08-03T09:07:04.471Z,1.90
2022-08-03T09:10:10.106Z,1.90
2022-08-03T09:12:42.248Z,2.10
2022-08-03T09:15:24.461Z,1.90
2022-08-03T09:17:53.056Z,2.00
2022-08-03T09:20:21.378Z,2.10
2022-08-03T09:23:00.534Z,1.67
2022-08-03T09:25:29.107Z,1.70
2022-08-03T09:27:56.902Z,1.70
2022-08-03T09:30:34.424Z,1.95
2022-08-03T09:33:05.072Z,1.92
2022-08-03T09:38:25.500Z,1.60
2022-08-03T09:40:58.867Z,1.70
2022-08-03T09:43:27.750Z,1.40
2022-08-03T09:46:03.941Z,1.50
2022-08-03T09:48:32.508Z,1.80
2022-08-03T09:51:13.195Z,1.70
2022-08-03T09:53:59.272Z,1.77
2022-08-03T09:56:38.759Z,1.80
2022-08-03T09:59:06.453Z,1.60
2022-08-03T10:01:35.033Z,1.80
2022-08-03T10:04:04.972Z,1.60
2022-08-03T10:06:33.271Z,1.90
2022-08-03T10:09:12.369Z,1.80
2022-08-03T10:11:42.425Z,1.83
2022-08-03T10:14:19.150Z,1.80
2022-08-03T10:17:12.098Z,1.80
2022-08-03T10:19:44.538Z,1.80
2022-08-03T10:22:14.303Z,1.98
2022-08-03T10:24:51.345Z,1.95
2022-08-03T10:27:23.748Z,1.70
2022-08-03T10:29:58.517Z,2.13
2022-08-03T10:32:35.366Z,1.80
2022-08-03T10:35:19.699Z,2.10
2022-08-03T10:38:11.470Z,2.00
2022-08-03T10:40:59.127Z,2.20
2022-08-03T10:43:40.374Z,2.00
2022-08-03T10:46:25.411Z,1.88
2022-08-03T10:49:11.478Z,2.05
2022-08-03T10:51:54.457Z,2.00
2022-08-03T10:55:01.057Z,1.90
2022-08-03T10:57:58.774Z,2.10
2022-08-03T11:00:28.196Z,1.88
2022-08-03T11:03:16.677Z,2.10
2022-08-03T11:05:44.810Z,2.10
2022-08-03T11:08:31.748Z,2.00
2022-08-03T11:11:01.384Z,1.95
2022-08-03T11:13:33.539Z,2.38
2022-08-03T11:16:06.044Z,2.33
2022-08-03T11:18:34.805Z,2.13
2022-08-03T11:21:03.532Z,1.95
2022-08-03T11:24:05.099Z,2.33
2022-08-03T11:26:29.774Z,2.60
2022-08-03T11:29:39.862Z,1.90
2022-08-03T11:32:10.971Z,2.30
2022-08-03T11:35:17.636Z,1.90
2022-08-03T11:38:05.334Z,2.20
2022-08-03T11:40:37.161Z,2.45
2022-08-03T11:46:29.671Z,1.90
2022-08-03T11:49:19.525Z,2.30
2022-08-03T11:51:52.725Z,2.00
2022-08-03T11:54:34.216Z,2.10
2022-08-03T11:57:06.484Z,2.20
2022-08-03T11:59:38.786Z,2.10
2022-08-03T12:02:20.962Z,2.40
2022-08-03T12:04:52.493Z,1.92
2022-08-03T12:07:24.476Z,2.05
2022-08-03T12:10:12.183Z,1.83
2022-08-03T12:12:46.591Z,1.85
2022-08-03T12:15:14.749Z,2.10
2022-08-03T12:17:45.059Z,2.00
2022-08-03T12:20:21.901Z,2.03
2022-08-03T12:23:06.638Z,2.05
2022-08-03T12:25:39.235Z,2.08
2022-08-03T12:28:37.459Z,2.55
2022-08-03T12:31:04.950Z,2.40
2022-08-03T12:33:54.611Z,2.20
2022-08-03T12:36:23.393Z,2.33
2022-08-03T12:38:57.377Z,1.92
2022-08-03T12:41:30.602Z,2.10
2022-08-03T12:43:58.495Z,2.17
2022-08-03T12:46:31.459Z,2.10
2022-08-03T12:49:03.976Z,2.00
2022-08-03T12:51:34.748Z,2.20
2022-08-03T12:54:12.892Z,2.22
2022-08-03T12:56:56.029Z,2.00
2022-08-03T12:59:32.189Z,2.05
2022-08-03T13:02:09.431Z,2.20
2022-08-03T13:04:46.512Z,2.10
2022-08-03T13:07:16.612Z,1.83
2022-08-03T13:09:49.603Z,1.80
2022-08-03T13:12:18.233Z,2.20
2022-08-03T13:14:49.627Z,2.00
2022-08-03T13:17:21.389Z,1.77
2022-08-03T13:22:37.045Z,1.92
2022-08-03T13:25:05.674Z,2.05
2022-08-03T13:28:05.146Z,2.00
2022-08-03T13:30:30.249Z,2.00
2022-08-03T13:33:00.764Z,1.70
2022-08-03T13:35:29.807Z,1.90
2022-08-03T13:38:00.799Z,1.77
2022-08-03T13:40:30.371Z,2.00
2022-08-03T13:42:58.418Z,2.10
2022-08-03T13:45:27.518Z,1.70
2022-08-03T13:47:55.223Z,2.00
2022-08-03T13:50:22.875Z,1.80
2022-08-03T13:52:53.525Z,1.85
2022-08-03T13:55:21.074Z,1.90
2022-08-03T13:58:11.929Z,1.83
2022-08-03T14:00:37.547Z,2.03
2022-08-03T14:03:13.323Z,1.90
2022-08-03T14:05:41.929Z,1.90
2022-08-03T14:08:11.295Z,2.10
2022-08-03T14:11:04.541Z,1.92
2022-08-03T14:13:32.412Z,1.90
2022-08-03T14:16:00.191Z,1.95
2022-08-03T14:18:33.532Z,2.03
2022-08-03T14:21:08.288Z,1.83
2022-08-03T14:23:40.137Z,2.28
2022-08-03T14:26:09.861Z,2.30
2022-08-03T14:28:37.707Z,1.85
2022-08-03T14:31:08.457Z,2.03
2022-08-03T14:33:43.410Z,2.00
2022-08-03T14:36:11.208Z,1.98
2022-08-03T14:38:40.606Z,1.83
2022-08-03T14:41:12.347Z,2.00
2022-08-03T14:44:01.551Z,1.88
2022-08-03T14:46:30.265Z,2.00
2022-08-03T14:50:29.393Z,2.08
2022-08-03T14:51:51.640Z,1.73
2022-08-03T14:54:24.774Z,2.17
2022-08-03T14:59:56.332Z,1.90
2022-08-03T15:02:24.437Z,1.90
2022-08-03T15:04:52.607Z,2.00
2022-08-03T15:07:21.504Z,1.92
2022-08-03T15:09:52.804Z,1.90
2022-08-03T15:12:21.519Z,1.95
2022-08-03T15:14:49.551Z,2.08
2022-08-03T15:17:20.430Z,1.80
2022-08-03T15:20:02.841Z,1.83
2022-08-03T15:22:37.758Z,2.20
2022-08-03T15:26:06.549Z,2.00
2022-08-03T15:28:03.579Z,1.70
2022-08-03T15:30:36.661Z,1.88
2022-08-03T15:33:07.241Z,1.98
2022-08-03T15:35:35.519Z,1.92
2022-08-03T15:38:08.708Z,1.88
2022-08-03T15:40:38.341Z,1.83
2022-08-03T15:43:06.210Z,1.65
2022-08-03T15:45:36.682Z,1.90
2022-08-03T15:48:04.844Z,1.75
2022-08-03T15:50:32.524Z,1.95
2022-08-03T15:53:00.307Z,1.90
2022-08-03T15:55:27.844Z,1.70
2022-08-03T15:59:09.239Z,1.95
2022-08-03T16:00:49.683Z,1.90
2022-08-03T16:03:17.702Z,1.75
2022-08-03T16:05:48.833Z,2.10
2022-08-03T16:08:16.680Z,1.70
2022-08-03T16:10:47.848Z,1.60
2022-08-03T16:13:17.685Z,1.77
2022-08-03T16:15:49.784Z,1.70
2022-08-03T16:18:18.303Z,1.83
2022-08-03T16:20:52.802Z,1.70
2022-08-03T16:23:20.979Z,1.63
2022-08-03T16:25:51.631Z,1.55
2022-08-03T16:28:22.983Z,1.83
2022-08-03T16:30:50.951Z,1.58
2022-08-03T16:33:18.783Z,1.70
2022-08-03T16:35:47.093Z,1.70
2022-08-03T16:38:18.865Z,1.80
2022-08-03T16:40:47.372Z,2.20
2022-08-03T16:43:18.623Z,1.77
2022-08-03T16:45:48.420Z,1.80
2022-08-03T16:48:16.239Z,2.00
2022-08-03T16:50:44.278Z,1.55
2022-08-03T16:53:16.777Z,1.77
2022-08-03T16:56:01.343Z,1.75
2022-08-03T16:58:41.737Z,2.10
2022-08-03T17:01:21.930Z,1.98
2022-08-03T17:04:02.046Z,1.90
2022-08-03T17:06:34.201Z,1.83
2022-08-03T17:09:03.187Z,2.22
2022-08-03T17:11:34.204Z,1.90
2022-08-03T17:14:04.385Z,1.80
2022-08-03T17:16:39.948Z,1.83
2022-08-03T17:19:21.932Z,1.92
2022-08-03T17:21:56.941Z,2.08
2022-08-03T17:24:30.512Z,1.90
2022-08-03T17:27:02.097Z,2.08
2022-08-03T17:29:33.161Z,1.92
2022-08-03T17:32:09.684Z,1.90
2022-08-03T17:34:43.108Z,1.90
2022-08-03T17:37:27.388Z,2.00
2022-08-03T17:40:05.183Z,2.22
2022-08-03T17:42:34.811Z,2.22
2022-08-03T17:45:03.938Z,2.17
2022-08-03T17:47:41.835Z,1.95
2022-08-03T17:53:07.377Z,2.10
2022-08-03T17:55:55.939Z,2.40
2022-08-03T17:58:42.234Z,2.42
2022-08-03T18:02:02.189Z,2.20
2022-08-03T18:04:29.912Z,2.15
2022-08-03T18:06:59.358Z,2.25
2022-08-03T18:10:03.730Z,2.10
2022-08-03T18:12:22.354Z,2.25
2022-08-03T18:18:02.482Z,1.90
2022-08-03T18:20:42.350Z,2.00
2022-08-03T18:23:24.584Z,2.08
2022-08-03T18:26:12.591Z,2.00
2022-08-03T18:28:46.393Z,2.13
2022-08-03T18:32:00.015Z,2.05
2022-08-03T18:34:16.306Z,2.42
2022-08-03T18:36:50.456Z,2.00
2022-08-03T18:39:19.891Z,2.00
2022-08-03T18:41:48.213Z,2.22
2022-08-03T18:47:08.080Z,2.22
2022-08-03T18:49:47.991Z,2.30
2022-08-03T18:52:19.069Z,2.15
2022-08-03T18:54:58.902Z,2.78
2022-08-03T18:57:38.251Z,2.50
2022-08-03T19:00:12.172Z,2.78
2022-08-03T19:02:49.043Z,2.22
2022-08-03T19:05:19.021Z,2.10
2022-08-03T19:07:58.243Z,2.00
2022-08-03T19:10:30.697Z,2.30
2022-08-03T19:13:04.319Z,2.13
2022-08-03T19:15:36.917Z,2.10
2022-08-03T19:18:11.152Z,2.15
2022-08-03T19:20:42.752Z,2.17
2022-08-03T19:23:17.507Z,2.15
2022-08-03T19:25:46.952Z,2.20
2022-08-03T19:28:17.810Z,2.30
2022-08-03T19:30:53.778Z,2.17
2022-08-03T19:33:22.712Z,2.05
2022-08-03T19:38:41.312Z,1.98
2022-08-03T19:41:13.979Z,1.85
2022-08-03T19:43:49.291Z,2.75
2022-08-03T19:46:30.678Z,2.30
2022-08-03T19:52:03.383Z,2.35
2022-08-03T19:54:39.560Z,2.08
2022-08-03T19:57:17.142Z,1.90
2022-08-03T19:59:49.893Z,2.28
2022-08-03T20:02:27.125Z,2.30
2022-08-03T20:04:55.798Z,2.15
2022-08-03T20:07:23.974Z,2.58
2022-08-03T20:09:54.356Z,2.20
2022-08-03T20:12:26.676Z,2.15
2022-08-03T20:14:57.820Z,2.25
2022-08-03T20:17:55.525Z,2.20
2022-08-03T20:20:23.986Z,2.30
2022-08-03T20:22:57.766Z,2.45
2022-08-03T20:28:21.110Z,2.40
2022-08-03T20:30:57.273Z,2.45
2022-08-03T20:33:46.394Z,2.10
2022-08-03T20:36:17.824Z,2.20
2022-08-03T20:38:47.379Z,2.10
2022-08-03T20:41:17.182Z,2.28
2022-08-03T20:43:45.155Z,1.83
2022-08-03T20:46:33.765Z,1.90
2022-08-03T20:49:04.312Z,1.90
2022-08-03T20:51:50.278Z,1.83
2022-08-03T20:54:28.989Z,2.03
2022-08-03T20:57:09.603Z,1.88
2022-08-03T20:59:50.134Z,1.80
2022-08-03T21:02:44.526Z,1.88
2022-08-03T21:05:21.116Z,2.00
2022-08-03T21:08:07.885Z,2.10
2022-08-03T21:10:47.422Z,1.95
2022-08-03T21:12:55.448Z,2.00
2022-08-03T21:12:57.371Z,1.90
2022-08-03T21:13:05.448Z,1.88
2022-08-03T21:13:06.786Z,2.25
2022-08-03T21:13:11.012Z,2.60
2022-08-03T21:13:11.100Z,2.13
2022-08-03T21:13:31.058Z,1.95
2022-08-03T21:16:11.230Z,2.03
2022-08-03T21:18:49.038Z,2.00
2022-08-03T21:21:20.853Z,1.80
2022-08-03T21:23:50.386Z,2.60
2022-08-03T21:26:20.275Z,2.70
2022-08-03T21:28:52.952Z,2.38
2022-08-03T21:31:24.380Z,2.40
2022-08-03T21:33:58.115Z,2.20
2022-08-03T21:36:38.196Z,2.28
2022-08-03T21:39:08.891Z,2.15
2022-08-03T21:41:59.148Z,2.05
2022-08-03T21:44:47.615Z,1.98
2022-08-03T21:47:45.693Z,2.60
2022-08-03T21:50:14.034Z,2.35
2022-08-03T21:53:15.126Z,2.15
2022-08-03T21:55:45.619Z,2.20
2022-08-03T21:58:27.814Z,2.30
2022-08-03T22:11:34.921Z,1.92
2022-08-03T22:14:05.240Z,2.40
2022-08-03T22:17:01.019Z,2.45
2022-08-03T22:19:49.746Z,2.22
2022-08-03T22:22:19.708Z,2.08
2022-08-03T22:25:06.505Z,2.80
2022-08-03T22:28:06.206Z,2.47
2022-08-03T22:30:34.036Z,2.30
2022-08-03T22:33:20.529Z,2.33
2022-08-03T22:35:50.735Z,2.10
2022-08-03T22:41:50.368Z,2.78
2022-08-03T22:52:01.766Z,2.25
2022-08-03T23:01:27.142Z,2.13
2022-08-03T23:04:09.037Z,2.42
2022-08-03T23:10:09.754Z,2.22
2022-08-03T23:13:00.324Z,2.03
2022-08-03T23:22:33.875Z,2.55
2022-08-03T23:31:55.537Z,2.55
2022-08-03T23:41:32.207Z,2.50
2022-08-03T23:44:00.454Z,2.58
2022-08-03T23:49:59.074Z,2.20
2022-08-03T23:59:55.833Z,2.40
